sensor_id;sensor_type;location;lat;lon;timestamp;P1;durP1;ratioP1;P2;durP2;ratioP2
30605;SDS011;17371;51.328;3.860;2023-05-10T00:00:46;10.83;;;3.00;;
30605;SDS011;17371;51.328;3.860;2023-05-10T00:03:11;6.13;;;3.07;;
30605;SDS011;17371;51.328;3.860;2023-05-10T00:05:36;4.43;;;2.80;;
30605;SDS011;17371;51.328;3.860;2023-05-10T00:08:03;4.07;;;2.87;;
30605;SDS011;17371;51.328;3.860;2023-05-10T00:10:29;7.82;;;3.58;;
30605;SDS011;17371;51.328;3.860;2023-05-10T00:12:54;5.73;;;3.33;;
30605;SDS011;17371;51.328;3.860;2023-05-10T00:15:19;7.70;;;2.87;;
30605;SDS011;17371;51.328;3.860;2023-05-10T00:17:45;5.17;;;2.90;;
30605;SDS011;17371;51.328;3.860;2023-05-10T00:20:10;5.95;;;3.30;;
30605;SDS011;17371;51.328;3.860;2023-05-10T00:22:36;4.85;;;3.08;;
30605;SDS011;17371;51.328;3.860;2023-05-10T00:25:03;5.63;;;3.47;;
30605;SDS011;17371;51.328;3.860;2023-05-10T00:27:29;8.90;;;3.15;;
30605;SDS011;17371;51.328;3.860;2023-05-10T00:29:54;5.90;;;3.60;;
30605;SDS011;17371;51.328;3.860;2023-05-10T00:32:20;5.40;;;3.20;;
30605;SDS011;17371;51.328;3.860;2023-05-10T00:34:45;4.55;;;2.78;;
30605;SDS011;17371;51.328;3.860;2023-05-10T00:37:10;6.07;;;3.35;;
30605;SDS011;17371;51.328;3.860;2023-05-10T00:39:36;8.50;;;3.20;;
30605;SDS011;17371;51.328;3.860;2023-05-10T00:42:03;7.27;;;3.67;;
30605;SDS011;17371;51.328;3.860;2023-05-10T00:44:28;8.77;;;4.15;;
30605;SDS011;17371;51.328;3.860;2023-05-10T00:46:54;7.80;;;3.47;;
30605;SDS011;17371;51.328;3.860;2023-05-10T00:49:19;7.77;;;4.40;;
30605;SDS011;17371;51.328;3.860;2023-05-10T00:51:45;9.60;;;4.18;;
30605;SDS011;17371;51.328;3.860;2023-05-10T00:54:11;6.07;;;3.63;;
30605;SDS011;17371;51.328;3.860;2023-05-10T00:56:36;7.13;;;3.65;;
30605;SDS011;17371;51.328;3.860;2023-05-10T00:59:03;8.07;;;4.27;;
30605;SDS011;17371;51.328;3.860;2023-05-10T01:01:28;8.23;;;4.60;;
30605;SDS011;17371;51.328;3.860;2023-05-10T01:03:54;16.40;;;6.88;;
30605;SDS011;17371;51.328;3.860;2023-05-10T01:06:20;12.40;;;5.70;;
30605;SDS011;17371;51.328;3.860;2023-05-10T01:08:45;10.93;;;5.70;;
30605;SDS011;17371;51.328;3.860;2023-05-10T01:11:11;7.17;;;3.90;;
30605;SDS011;17371;51.328;3.860;2023-05-10T01:13:37;11.55;;;4.82;;
30605;SDS011;17371;51.328;3.860;2023-05-10T01:16:05;7.70;;;3.93;;
30605;SDS011;17371;51.328;3.860;2023-05-10T01:18:31;7.72;;;4.22;;
30605;SDS011;17371;51.328;3.860;2023-05-10T01:21:01;10.90;;;5.28;;
30605;SDS011;17371;51.328;3.860;2023-05-10T01:23:43;13.25;;;6.43;;
30605;SDS011;17371;51.328;3.860;2023-05-10T01:26:17;15.02;;;6.75;;
30605;SDS011;17371;51.328;3.860;2023-05-10T01:28:58;9.77;;;5.07;;
30605;SDS011;17371;51.328;3.860;2023-05-10T01:34:42;10.85;;;5.63;;
30605;SDS011;17371;51.328;3.860;2023-05-10T01:37:13;11.30;;;4.95;;
30605;SDS011;17371;51.328;3.860;2023-05-10T01:39:43;14.88;;;7.07;;
30605;SDS011;17371;51.328;3.860;2023-05-10T01:42:11;11.97;;;6.03;;
30605;SDS011;17371;51.328;3.860;2023-05-10T01:44:40;14.32;;;6.60;;
30605;SDS011;17371;51.328;3.860;2023-05-10T01:47:09;11.15;;;5.18;;
30605;SDS011;17371;51.328;3.860;2023-05-10T01:49:36;11.82;;;5.57;;
30605;SDS011;17371;51.328;3.860;2023-05-10T01:52:08;12.90;;;5.80;;
30605;SDS011;17371;51.328;3.860;2023-05-10T01:54:35;13.30;;;5.13;;
30605;SDS011;17371;51.328;3.860;2023-05-10T01:57:05;11.85;;;6.22;;
30605;SDS011;17371;51.328;3.860;2023-05-10T01:59:31;11.65;;;5.53;;
30605;SDS011;17371;51.328;3.860;2023-05-10T02:01:59;12.10;;;5.55;;
30605;SDS011;17371;51.328;3.860;2023-05-10T02:04:26;11.43;;;5.20;;
30605;SDS011;17371;51.328;3.860;2023-05-10T02:06:52;12.10;;;5.23;;
30605;SDS011;17371;51.328;3.860;2023-05-10T02:09:20;11.93;;;5.88;;
30605;SDS011;17371;51.328;3.860;2023-05-10T02:11:45;9.88;;;5.95;;
30605;SDS011;17371;51.328;3.860;2023-05-10T02:14:13;11.80;;;5.72;;
30605;SDS011;17371;51.328;3.860;2023-05-10T02:16:39;13.88;;;6.25;;
30605;SDS011;17371;51.328;3.860;2023-05-10T02:19:05;15.50;;;6.70;;
30605;SDS011;17371;51.328;3.860;2023-05-10T02:21:31;16.25;;;6.90;;
30605;SDS011;17371;51.328;3.860;2023-05-10T02:23:58;10.65;;;5.20;;
30605;SDS011;17371;51.328;3.860;2023-05-10T02:26:25;14.87;;;5.80;;
30605;SDS011;17371;51.328;3.860;2023-05-10T02:28:51;11.10;;;5.97;;
30605;SDS011;17371;51.328;3.860;2023-05-10T02:31:18;10.32;;;5.57;;
30605;SDS011;17371;51.328;3.860;2023-05-10T02:33:44;17.13;;;6.55;;
30605;SDS011;17371;51.328;3.860;2023-05-10T02:36:10;11.75;;;5.43;;
30605;SDS011;17371;51.328;3.860;2023-05-10T02:38:37;12.52;;;5.15;;
30605;SDS011;17371;51.328;3.860;2023-05-10T02:41:02;16.33;;;6.30;;
30605;SDS011;17371;51.328;3.860;2023-05-10T02:43:31;10.23;;;5.90;;
30605;SDS011;17371;51.328;3.860;2023-05-10T02:45:56;11.32;;;5.90;;
30605;SDS011;17371;51.328;3.860;2023-05-10T02:48:22;12.77;;;6.13;;
30605;SDS011;17371;51.328;3.860;2023-05-10T02:50:47;11.95;;;6.30;;
30605;SDS011;17371;51.328;3.860;2023-05-10T02:53:17;12.27;;;5.70;;
30605;SDS011;17371;51.328;3.860;2023-05-10T02:55:44;10.50;;;5.38;;
30605;SDS011;17371;51.328;3.860;2023-05-10T02:58:10;12.40;;;5.70;;
30605;SDS011;17371;51.328;3.860;2023-05-10T03:00:37;10.87;;;5.10;;
30605;SDS011;17371;51.328;3.860;2023-05-10T03:03:02;14.95;;;6.75;;
30605;SDS011;17371;51.328;3.860;2023-05-10T03:05:28;7.97;;;4.43;;
30605;SDS011;17371;51.328;3.860;2023-05-10T03:07:53;7.57;;;4.80;;
30605;SDS011;17371;51.328;3.860;2023-05-10T03:10:19;8.75;;;4.65;;
30605;SDS011;17371;51.328;3.860;2023-05-10T03:12:52;8.77;;;4.88;;
30605;SDS011;17371;51.328;3.860;2023-05-10T03:15:22;10.38;;;5.32;;
30605;SDS011;17371;51.328;3.860;2023-05-10T03:17:55;9.32;;;4.43;;
30605;SDS011;17371;51.328;3.860;2023-05-10T03:20:22;8.07;;;4.73;;
30605;SDS011;17371;51.328;3.860;2023-05-10T03:22:51;11.30;;;5.43;;
30605;SDS011;17371;51.328;3.860;2023-05-10T03:25:18;18.02;;;6.68;;
30605;SDS011;17371;51.328;3.860;2023-05-10T03:27:45;11.70;;;5.13;;
30605;SDS011;17371;51.328;3.860;2023-05-10T03:30:12;6.27;;;4.37;;
30605;SDS011;17371;51.328;3.860;2023-05-10T03:32:38;7.35;;;4.22;;
30605;SDS011;17371;51.328;3.860;2023-05-10T03:35:07;9.82;;;5.28;;
30605;SDS011;17371;51.328;3.860;2023-05-10T03:37:32;7.87;;;4.30;;
30605;SDS011;17371;51.328;3.860;2023-05-10T03:39:58;12.38;;;6.22;;
30605;SDS011;17371;51.328;3.860;2023-05-10T03:42:23;11.30;;;5.57;;
30605;SDS011;17371;51.328;3.860;2023-05-10T03:44:49;11.50;;;6.43;;
30605;SDS011;17371;51.328;3.860;2023-05-10T03:47:14;10.93;;;4.97;;
30605;SDS011;17371;51.328;3.860;2023-05-10T03:49:39;11.00;;;5.70;;
30605;SDS011;17371;51.328;3.860;2023-05-10T03:52:06;11.50;;;4.50;;
30605;SDS011;17371;51.328;3.860;2023-05-10T03:54:31;8.90;;;5.28;;
30605;SDS011;17371;51.328;3.860;2023-05-10T03:56:57;10.07;;;5.00;;
30605;SDS011;17371;51.328;3.860;2023-05-10T03:59:22;8.27;;;4.83;;
30605;SDS011;17371;51.328;3.860;2023-05-10T04:01:47;7.25;;;4.82;;
30605;SDS011;17371;51.328;3.860;2023-05-10T04:04:13;10.17;;;5.63;;
30605;SDS011;17371;51.328;3.860;2023-05-10T04:06:38;9.93;;;5.27;;
30605;SDS011;17371;51.328;3.860;2023-05-10T04:09:05;8.60;;;5.13;;
30605;SDS011;17371;51.328;3.860;2023-05-10T04:11:30;10.48;;;5.47;;
30605;SDS011;17371;51.328;3.860;2023-05-10T04:13:56;10.53;;;4.70;;
30605;SDS011;17371;51.328;3.860;2023-05-10T04:16:21;8.10;;;5.43;;
30605;SDS011;17371;51.328;3.860;2023-05-10T04:18:47;9.93;;;5.07;;
30605;SDS011;17371;51.328;3.860;2023-05-10T04:21:12;11.27;;;5.57;;
30605;SDS011;17371;51.328;3.860;2023-05-10T04:23:37;9.45;;;5.90;;
30605;SDS011;17371;51.328;3.860;2023-05-10T04:26:04;10.10;;;5.67;;
30605;SDS011;17371;51.328;3.860;2023-05-10T04:28:30;8.57;;;4.60;;
30605;SDS011;17371;51.328;3.860;2023-05-10T04:31:00;9.40;;;4.57;;
30605;SDS011;17371;51.328;3.860;2023-05-10T04:33:25;8.38;;;4.78;;
30605;SDS011;17371;51.328;3.860;2023-05-10T04:35:51;8.83;;;4.63;;
30605;SDS011;17371;51.328;3.860;2023-05-10T04:38:16;9.27;;;5.40;;
30605;SDS011;17371;51.328;3.860;2023-05-10T04:40:42;7.30;;;3.93;;
30605;SDS011;17371;51.328;3.860;2023-05-10T04:43:08;10.10;;;4.83;;
30605;SDS011;17371;51.328;3.860;2023-05-10T04:45:34;9.07;;;4.80;;
30605;SDS011;17371;51.328;3.860;2023-05-10T04:47:59;11.17;;;5.53;;
30605;SDS011;17371;51.328;3.860;2023-05-10T04:50:24;10.33;;;5.10;;
30605;SDS011;17371;51.328;3.860;2023-05-10T04:52:50;10.13;;;5.25;;
30605;SDS011;17371;51.328;3.860;2023-05-10T04:55:15;11.10;;;5.43;;
30605;SDS011;17371;51.328;3.860;2023-05-10T04:57:41;14.10;;;5.87;;
30605;SDS011;17371;51.328;3.860;2023-05-10T05:00:08;14.90;;;5.73;;
30605;SDS011;17371;51.328;3.860;2023-05-10T05:02:34;13.55;;;5.88;;
30605;SDS011;17371;51.328;3.860;2023-05-10T05:05:00;12.37;;;4.93;;
30605;SDS011;17371;51.328;3.860;2023-05-10T05:07:25;14.53;;;6.63;;
30605;SDS011;17371;51.328;3.860;2023-05-10T05:09:50;12.73;;;5.87;;
30605;SDS011;17371;51.328;3.860;2023-05-10T05:12:16;14.17;;;6.27;;
30605;SDS011;17371;51.328;3.860;2023-05-10T05:14:41;17.13;;;6.55;;
30605;SDS011;17371;51.328;3.860;2023-05-10T05:17:08;17.13;;;6.93;;
30605;SDS011;17371;51.328;3.860;2023-05-10T05:19:33;17.20;;;7.83;;
30605;SDS011;17371;51.328;3.860;2023-05-10T05:21:59;13.52;;;6.38;;
30605;SDS011;17371;51.328;3.860;2023-05-10T05:24:24;19.77;;;8.30;;
30605;SDS011;17371;51.328;3.860;2023-05-10T05:26:49;14.07;;;6.67;;
30605;SDS011;17371;51.328;3.860;2023-05-10T05:29:15;14.60;;;7.17;;
30605;SDS011;17371;51.328;3.860;2023-05-10T05:31:40;15.87;;;8.13;;
30605;SDS011;17371;51.328;3.860;2023-05-10T05:34:07;24.83;;;8.23;;
30605;SDS011;17371;51.328;3.860;2023-05-10T05:36:35;23.53;;;8.90;;
30605;SDS011;17371;51.328;3.860;2023-05-10T05:39:01;20.13;;;8.40;;
30605;SDS011;17371;51.328;3.860;2023-05-10T05:41:26;25.03;;;9.43;;
30605;SDS011;17371;51.328;3.860;2023-05-10T05:43:51;22.63;;;9.63;;
30605;SDS011;17371;51.328;3.860;2023-05-10T05:46:17;18.85;;;8.90;;
30605;SDS011;17371;51.328;3.860;2023-05-10T05:48:42;25.27;;;10.17;;
30605;SDS011;17371;51.328;3.860;2023-05-10T05:51:09;15.33;;;8.80;;
30605;SDS011;17371;51.328;3.860;2023-05-10T05:53:34;14.27;;;8.13;;
30605;SDS011;17371;51.328;3.860;2023-05-10T05:55:59;11.40;;;6.60;;
30605;SDS011;17371;51.328;3.860;2023-05-10T05:58:25;13.47;;;7.33;;
30605;SDS011;17371;51.328;3.860;2023-05-10T06:00:51;11.73;;;6.33;;
30605;SDS011;17371;51.328;3.860;2023-05-10T06:03:17;10.52;;;6.07;;
30605;SDS011;17371;51.328;3.860;2023-05-10T06:05:42;10.37;;;6.13;;
30605;SDS011;17371;51.328;3.860;2023-05-10T06:08:09;11.07;;;6.50;;
30605;SDS011;17371;51.328;3.860;2023-05-10T06:10:34;10.73;;;6.30;;
30605;SDS011;17371;51.328;3.860;2023-05-10T06:12:59;9.50;;;6.13;;
30605;SDS011;17371;51.328;3.860;2023-05-10T06:15:25;12.18;;;6.53;;
30605;SDS011;17371;51.328;3.860;2023-05-10T06:17:50;9.33;;;6.17;;
30605;SDS011;17371;51.328;3.860;2023-05-10T06:20:16;9.13;;;6.00;;
30605;SDS011;17371;51.328;3.860;2023-05-10T06:22:41;10.60;;;5.53;;
30605;SDS011;17371;51.328;3.860;2023-05-10T06:25:08;9.93;;;5.13;;
30605;SDS011;17371;51.328;3.860;2023-05-10T06:27:34;12.20;;;6.32;;
30605;SDS011;17371;51.328;3.860;2023-05-10T06:30:00;10.83;;;6.47;;
30605;SDS011;17371;51.328;3.860;2023-05-10T06:32:25;16.13;;;7.25;;
30605;SDS011;17371;51.328;3.860;2023-05-10T06:34:50;12.43;;;6.23;;
30605;SDS011;17371;51.328;3.860;2023-05-10T06:37:16;8.60;;;5.80;;
30605;SDS011;17371;51.328;3.860;2023-05-10T06:39:41;9.80;;;5.27;;
30605;SDS011;17371;51.328;3.860;2023-05-10T06:42:08;10.30;;;5.27;;
30605;SDS011;17371;51.328;3.860;2023-05-10T06:44:33;9.52;;;5.68;;
30605;SDS011;17371;51.328;3.860;2023-05-10T06:46:59;8.70;;;5.27;;
30605;SDS011;17371;51.328;3.860;2023-05-10T06:49:24;9.88;;;4.65;;
30605;SDS011;17371;51.328;3.860;2023-05-10T06:51:49;8.52;;;5.25;;
30605;SDS011;17371;51.328;3.860;2023-05-10T06:54:15;9.17;;;5.13;;
30605;SDS011;17371;51.328;3.860;2023-05-10T06:56:40;8.23;;;5.33;;
30605;SDS011;17371;51.328;3.860;2023-05-10T06:59:07;7.33;;;4.80;;
30605;SDS011;17371;51.328;3.860;2023-05-10T07:01:32;7.63;;;4.97;;
30605;SDS011;17371;51.328;3.860;2023-05-10T07:03:58;9.73;;;4.77;;
30605;SDS011;17371;51.328;3.860;2023-05-10T07:06:23;9.23;;;5.10;;
30605;SDS011;17371;51.328;3.860;2023-05-10T07:08:48;8.53;;;5.00;;
30605;SDS011;17371;51.328;3.860;2023-05-10T07:11:14;8.57;;;4.88;;
30605;SDS011;17371;51.328;3.860;2023-05-10T07:13:39;9.07;;;4.77;;
30605;SDS011;17371;51.328;3.860;2023-05-10T07:16:06;8.07;;;4.90;;
30605;SDS011;17371;51.328;3.860;2023-05-10T07:18:31;6.80;;;4.20;;
30605;SDS011;17371;51.328;3.860;2023-05-10T07:20:57;9.30;;;4.70;;
30605;SDS011;17371;51.328;3.860;2023-05-10T07:23:22;6.60;;;4.10;;
30605;SDS011;17371;51.328;3.860;2023-05-10T07:25:48;6.60;;;4.00;;
30605;SDS011;17371;51.328;3.860;2023-05-10T07:28:14;7.18;;;4.10;;
30605;SDS011;17371;51.328;3.860;2023-05-10T07:30:40;7.57;;;4.38;;
30605;SDS011;17371;51.328;3.860;2023-05-10T07:33:07;7.27;;;4.10;;
30605;SDS011;17371;51.328;3.860;2023-05-10T07:35:33;6.40;;;3.80;;
30605;SDS011;17371;51.328;3.860;2023-05-10T07:37:58;9.03;;;5.17;;
30605;SDS011;17371;51.328;3.860;2023-05-10T07:40:24;9.23;;;4.43;;
30605;SDS011;17371;51.328;3.860;2023-05-10T07:42:49;8.00;;;4.03;;
30605;SDS011;17371;51.328;3.860;2023-05-10T07:45:14;7.67;;;4.43;;
30605;SDS011;17371;51.328;3.860;2023-05-10T07:47:40;7.53;;;4.27;;
30605;SDS011;17371;51.328;3.860;2023-05-10T07:50:07;7.43;;;4.47;;
30605;SDS011;17371;51.328;3.860;2023-05-10T07:52:33;7.55;;;4.47;;
30605;SDS011;17371;51.328;3.860;2023-05-10T07:54:58;6.70;;;3.87;;
30605;SDS011;17371;51.328;3.860;2023-05-10T07:57:24;6.77;;;3.80;;
30605;SDS011;17371;51.328;3.860;2023-05-10T07:59:49;8.40;;;4.80;;
30605;SDS011;17371;51.328;3.860;2023-05-10T08:02:14;6.57;;;3.97;;
30605;SDS011;17371;51.328;3.860;2023-05-10T08:04:40;7.57;;;4.10;;
30605;SDS011;17371;51.328;3.860;2023-05-10T08:07:06;6.40;;;4.23;;
30605;SDS011;17371;51.328;3.860;2023-05-10T08:09:32;4.50;;;3.35;;
30605;SDS011;17371;51.328;3.860;2023-05-10T08:11:57;5.00;;;3.10;;
30605;SDS011;17371;51.328;3.860;2023-05-10T08:14:23;5.27;;;2.97;;
30605;SDS011;17371;51.328;3.860;2023-05-10T08:16:48;5.17;;;2.97;;
30605;SDS011;17371;51.328;3.860;2023-05-10T08:19:13;3.77;;;2.27;;
30605;SDS011;17371;51.328;3.860;2023-05-10T08:21:39;3.90;;;2.33;;
30605;SDS011;17371;51.328;3.860;2023-05-10T08:24:06;3.78;;;2.28;;
30605;SDS011;17371;51.328;3.860;2023-05-10T08:26:32;3.75;;;2.67;;
30605;SDS011;17371;51.328;3.860;2023-05-10T08:28:57;4.97;;;2.42;;
30605;SDS011;17371;51.328;3.860;2023-05-10T08:31:22;3.70;;;2.30;;
30605;SDS011;17371;51.328;3.860;2023-05-10T08:33:48;4.80;;;2.47;;
30605;SDS011;17371;51.328;3.860;2023-05-10T08:36:13;5.20;;;2.53;;
30605;SDS011;17371;51.328;3.860;2023-05-10T08:38:38;4.93;;;2.70;;
30605;SDS011;17371;51.328;3.860;2023-05-10T08:41:05;5.85;;;2.40;;
30605;SDS011;17371;51.328;3.860;2023-05-10T08:43:31;4.53;;;2.40;;
30605;SDS011;17371;51.328;3.860;2023-05-10T08:45:58;3.63;;;2.28;;
30605;SDS011;17371;51.328;3.860;2023-05-10T08:48:25;7.53;;;2.80;;
30605;SDS011;17371;51.328;3.860;2023-05-10T08:50:52;3.60;;;2.40;;
30605;SDS011;17371;51.328;3.860;2023-05-10T08:53:18;4.68;;;2.40;;
30605;SDS011;17371;51.328;3.860;2023-05-10T08:55:44;3.73;;;2.37;;
30605;SDS011;17371;51.328;3.860;2023-05-10T08:58:11;5.45;;;2.50;;
30605;SDS011;17371;51.328;3.860;2023-05-10T09:00:36;4.85;;;2.40;;
30605;SDS011;17371;51.328;3.860;2023-05-10T09:03:02;6.05;;;2.75;;
30605;SDS011;17371;51.328;3.860;2023-05-10T09:05:28;3.23;;;2.20;;
30605;SDS011;17371;51.328;3.860;2023-05-10T09:07:53;3.65;;;2.60;;
30605;SDS011;17371;51.328;3.860;2023-05-10T09:10:19;3.50;;;2.27;;
30605;SDS011;17371;51.328;3.860;2023-05-10T09:12:44;3.57;;;2.17;;
30605;SDS011;17371;51.328;3.860;2023-05-10T09:15:12;3.70;;;2.30;;
30605;SDS011;17371;51.328;3.860;2023-05-10T09:17:40;3.65;;;2.22;;
30605;SDS011;17371;51.328;3.860;2023-05-10T09:20:06;3.60;;;2.23;;
30605;SDS011;17371;51.328;3.860;2023-05-10T09:22:32;4.65;;;2.40;;
30605;SDS011;17371;51.328;3.860;2023-05-10T09:25:05;3.95;;;2.50;;
30605;SDS011;17371;51.328;3.860;2023-05-10T09:27:31;4.97;;;2.43;;
30605;SDS011;17371;51.328;3.860;2023-05-10T09:29:56;3.22;;;2.35;;
30605;SDS011;17371;51.328;3.860;2023-05-10T09:32:23;3.38;;;2.65;;
30605;SDS011;17371;51.328;3.860;2023-05-10T09:35:05;3.47;;;2.60;;
30605;SDS011;17371;51.328;3.860;2023-05-10T09:37:31;5.03;;;2.90;;
30605;SDS011;17371;51.328;3.860;2023-05-10T09:39:56;3.55;;;2.38;;
30605;SDS011;17371;51.328;3.860;2023-05-10T09:42:22;4.85;;;2.20;;
30605;SDS011;17371;51.328;3.860;2023-05-10T09:44:47;4.13;;;2.70;;
30605;SDS011;17371;51.328;3.860;2023-05-10T09:47:16;4.40;;;2.57;;
30605;SDS011;17371;51.328;3.860;2023-05-10T09:49:43;3.03;;;2.22;;
30605;SDS011;17371;51.328;3.860;2023-05-10T09:52:08;3.78;;;2.22;;
30605;SDS011;17371;51.328;3.860;2023-05-10T09:54:34;3.80;;;2.20;;
30605;SDS011;17371;51.328;3.860;2023-05-10T09:56:59;3.77;;;2.57;;
30605;SDS011;17371;51.328;3.860;2023-05-10T09:59:25;4.07;;;2.25;;
30605;SDS011;17371;51.328;3.860;2023-05-10T10:01:52;5.30;;;2.80;;
30605;SDS011;17371;51.328;3.860;2023-05-10T10:04:17;5.97;;;2.30;;
30605;SDS011;17371;51.328;3.860;2023-05-10T10:06:46;3.30;;;2.28;;
30605;SDS011;17371;51.328;3.860;2023-05-10T10:09:11;6.95;;;2.72;;
30605;SDS011;17371;51.328;3.860;2023-05-10T10:11:37;4.17;;;2.73;;
30605;SDS011;17371;51.328;3.860;2023-05-10T10:14:03;6.95;;;2.60;;
30605;SDS011;17371;51.328;3.860;2023-05-10T10:16:29;5.45;;;2.75;;
30605;SDS011;17371;51.328;3.860;2023-05-10T10:18:55;4.87;;;2.60;;
30605;SDS011;17371;51.328;3.860;2023-05-10T10:21:20;5.70;;;2.42;;
30605;SDS011;17371;51.328;3.860;2023-05-10T10:23:47;3.90;;;2.25;;
30605;SDS011;17371;51.328;3.860;2023-05-10T10:26:13;3.15;;;2.40;;
30605;SDS011;17371;51.328;3.860;2023-05-10T10:28:39;6.20;;;2.83;;
30605;SDS011;17371;51.328;3.860;2023-05-10T10:31:13;4.30;;;2.83;;
30605;SDS011;17371;51.328;3.860;2023-05-10T10:33:50;7.68;;;4.75;;
30605;SDS011;17371;51.328;3.860;2023-05-10T10:36:20;6.30;;;4.00;;
30605;SDS011;17371;51.328;3.860;2023-05-10T10:38:57;6.10;;;3.00;;
30605;SDS011;17371;51.328;3.860;2023-05-10T10:41:30;5.18;;;3.40;;
30605;SDS011;17371;51.328;3.860;2023-05-10T10:47:06;5.25;;;3.00;;
30605;SDS011;17371;51.328;3.860;2023-05-10T10:49:33;5.85;;;3.15;;
30605;SDS011;17371;51.328;3.860;2023-05-10T10:52:17;6.93;;;2.88;;
30605;SDS011;17371;51.328;3.860;2023-05-10T10:54:50;6.40;;;3.53;;
30605;SDS011;17371;51.328;3.860;2023-05-10T10:57:17;5.60;;;3.23;;
30605;SDS011;17371;51.328;3.860;2023-05-10T10:59:43;6.25;;;3.13;;
30605;SDS011;17371;51.328;3.860;2023-05-10T11:02:09;5.28;;;3.25;;
30605;SDS011;17371;51.328;3.860;2023-05-10T11:04:41;7.60;;;3.27;;
30605;SDS011;17371;51.328;3.860;2023-05-10T11:07:16;4.88;;;2.97;;
30605;SDS011;17371;51.328;3.860;2023-05-10T11:09:41;8.65;;;3.22;;
30605;SDS011;17371;51.328;3.860;2023-05-10T11:12:09;5.50;;;3.47;;
30605;SDS011;17371;51.328;3.860;2023-05-10T11:14:35;7.78;;;3.42;;
30605;SDS011;17371;51.328;3.860;2023-05-10T11:17:01;4.83;;;3.00;;
30605;SDS011;17371;51.328;3.860;2023-05-10T11:19:27;5.80;;;3.43;;
30605;SDS011;17371;51.328;3.860;2023-05-10T11:24:37;4.90;;;3.10;;
30605;SDS011;17371;51.328;3.860;2023-05-10T11:27:02;4.83;;;3.13;;
30605;SDS011;17371;51.328;3.860;2023-05-10T11:29:29;6.37;;;3.37;;
30605;SDS011;17371;51.328;3.860;2023-05-10T11:31:56;6.25;;;3.85;;
30605;SDS011;17371;51.328;3.860;2023-05-10T11:34:23;6.20;;;3.65;;
30605;SDS011;17371;51.328;3.860;2023-05-10T11:36:50;7.22;;;4.20;;
30605;SDS011;17371;51.328;3.860;2023-05-10T11:39:16;7.60;;;4.18;;
30605;SDS011;17371;51.328;3.860;2023-05-10T11:41:41;7.53;;;3.87;;
30605;SDS011;17371;51.328;3.860;2023-05-10T11:44:08;9.52;;;3.97;;
30605;SDS011;17371;51.328;3.860;2023-05-10T11:46:35;7.13;;;3.77;;
30605;SDS011;17371;51.328;3.860;2023-05-10T11:49:01;6.80;;;3.50;;
30605;SDS011;17371;51.328;3.860;2023-05-10T11:51:26;6.70;;;4.35;;
30605;SDS011;17371;51.328;3.860;2023-05-10T11:53:53;6.93;;;3.83;;
30605;SDS011;17371;51.328;3.860;2023-05-10T11:56:19;12.20;;;4.13;;
30605;SDS011;17371;51.328;3.860;2023-05-10T11:58:44;7.23;;;3.27;;
30605;SDS011;17371;51.328;3.860;2023-05-10T12:01:09;8.47;;;3.27;;
30605;SDS011;17371;51.328;3.860;2023-05-10T12:03:37;7.82;;;3.47;;
30605;SDS011;17371;51.328;3.860;2023-05-10T12:06:02;6.43;;;3.53;;
30605;SDS011;17371;51.328;3.860;2023-05-10T12:08:29;5.35;;;2.70;;
30605;SDS011;17371;51.328;3.860;2023-05-10T12:11:03;5.50;;;2.95;;
30605;SDS011;17371;51.328;3.860;2023-05-10T12:13:29;5.72;;;3.08;;
30605;SDS011;17371;51.328;3.860;2023-05-10T12:15:56;6.67;;;2.90;;
30605;SDS011;17371;51.328;3.860;2023-05-10T12:18:22;5.95;;;3.25;;
30605;SDS011;17371;51.328;3.860;2023-05-10T12:20:49;6.30;;;3.73;;
30605;SDS011;17371;51.328;3.860;2023-05-10T12:23:17;8.07;;;3.55;;
30605;SDS011;17371;51.328;3.860;2023-05-10T12:25:42;6.47;;;4.03;;
30605;SDS011;17371;51.328;3.860;2023-05-10T12:28:08;6.95;;;3.92;;
30605;SDS011;17371;51.328;3.860;2023-05-10T12:30:34;7.53;;;3.73;;
30605;SDS011;17371;51.328;3.860;2023-05-10T12:33:01;7.25;;;3.83;;
30605;SDS011;17371;51.328;3.860;2023-05-10T12:35:29;6.82;;;4.50;;
30605;SDS011;17371;51.328;3.860;2023-05-10T12:37:57;7.43;;;4.15;;
30605;SDS011;17371;51.328;3.860;2023-05-10T12:40:22;9.73;;;4.60;;
30605;SDS011;17371;51.328;3.860;2023-05-10T12:42:47;7.87;;;4.70;;
30605;SDS011;17371;51.328;3.860;2023-05-10T12:45:13;6.53;;;3.77;;
30605;SDS011;17371;51.328;3.860;2023-05-10T12:47:38;7.17;;;5.10;;
30605;SDS011;17371;51.328;3.860;2023-05-10T12:50:04;7.90;;;5.13;;
30605;SDS011;17371;51.328;3.860;2023-05-10T12:52:30;10.98;;;4.72;;
30605;SDS011;17371;51.328;3.860;2023-05-10T12:54:57;5.72;;;3.38;;
30605;SDS011;17371;51.328;3.860;2023-05-10T12:57:23;5.78;;;3.67;;
30605;SDS011;17371;51.328;3.860;2023-05-10T12:59:48;6.30;;;3.53;;
30605;SDS011;17371;51.328;3.860;2023-05-10T13:02:14;6.27;;;3.20;;
30605;SDS011;17371;51.328;3.860;2023-05-10T13:04:39;7.78;;;2.65;;
30605;SDS011;17371;51.328;3.860;2023-05-10T13:07:05;5.80;;;3.63;;
30605;SDS011;17371;51.328;3.860;2023-05-10T13:09:30;4.37;;;2.93;;
30605;SDS011;17371;51.328;3.860;2023-05-10T13:11:57;7.83;;;3.20;;
30605;SDS011;17371;51.328;3.860;2023-05-10T13:14:23;6.43;;;4.22;;
30605;SDS011;17371;51.328;3.860;2023-05-10T13:16:49;7.13;;;3.88;;
30605;SDS011;17371;51.328;3.860;2023-05-10T13:19:15;4.70;;;3.13;;
30605;SDS011;17371;51.328;3.860;2023-05-10T13:21:42;8.32;;;3.20;;
30605;SDS011;17371;51.328;3.860;2023-05-10T13:24:07;7.68;;;3.75;;
30605;SDS011;17371;51.328;3.860;2023-05-10T13:26:33;7.23;;;4.03;;
30605;SDS011;17371;51.328;3.860;2023-05-10T13:29:00;7.77;;;4.03;;
30605;SDS011;17371;51.328;3.860;2023-05-10T13:31:25;7.85;;;3.90;;
30605;SDS011;17371;51.328;3.860;2023-05-10T13:33:50;7.33;;;3.87;;
30605;SDS011;17371;51.328;3.860;2023-05-10T13:36:16;9.50;;;4.17;;
30605;SDS011;17371;51.328;3.860;2023-05-10T13:38:41;6.70;;;3.50;;
30605;SDS011;17371;51.328;3.860;2023-05-10T13:41:07;8.88;;;4.05;;
30605;SDS011;17371;51.328;3.860;2023-05-10T13:43:32;8.03;;;3.80;;
30605;SDS011;17371;51.328;3.860;2023-05-10T13:45:59;6.87;;;4.00;;
30605;SDS011;17371;51.328;3.860;2023-05-10T13:48:24;5.55;;;3.40;;
30605;SDS011;17371;51.328;3.860;2023-05-10T13:50:49;6.10;;;4.03;;
30605;SDS011;17371;51.328;3.860;2023-05-10T13:53:15;6.03;;;3.83;;
30605;SDS011;17371;51.328;3.860;2023-05-10T13:55:40;7.90;;;4.10;;
30605;SDS011;17371;51.328;3.860;2023-05-10T13:58:06;6.97;;;3.83;;
30605;SDS011;17371;51.328;3.860;2023-05-10T14:00:31;10.33;;;4.27;;
30605;SDS011;17371;51.328;3.860;2023-05-10T14:02:58;5.40;;;3.20;;
30605;SDS011;17371;51.328;3.860;2023-05-10T14:05:23;6.50;;;3.30;;
30605;SDS011;17371;51.328;3.860;2023-05-10T14:07:49;6.90;;;3.30;;
30605;SDS011;17371;51.328;3.860;2023-05-10T14:10:15;6.07;;;3.45;;
30605;SDS011;17371;51.328;3.860;2023-05-10T14:12:40;7.07;;;3.20;;
30605;SDS011;17371;51.328;3.860;2023-05-10T14:15:06;6.90;;;3.50;;
30605;SDS011;17371;51.328;3.860;2023-05-10T14:17:32;5.63;;;3.40;;
30605;SDS011;17371;51.328;3.860;2023-05-10T14:19:59;11.60;;;3.67;;
30605;SDS011;17371;51.328;3.860;2023-05-10T14:22:24;7.13;;;3.80;;
30605;SDS011;17371;51.328;3.860;2023-05-10T14:24:50;7.70;;;4.13;;
30605;SDS011;17371;51.328;3.860;2023-05-10T14:27:15;8.23;;;3.73;;
30605;SDS011;17371;51.328;3.860;2023-05-10T14:29:40;4.60;;;2.87;;
30605;SDS011;17371;51.328;3.860;2023-05-10T14:32:06;7.30;;;4.00;;
30605;SDS011;17371;51.328;3.860;2023-05-10T14:34:31;7.30;;;3.60;;
30605;SDS011;17371;51.328;3.860;2023-05-10T14:36:58;7.53;;;4.23;;
30605;SDS011;17371;51.328;3.860;2023-05-10T14:39:23;7.65;;;4.22;;
30605;SDS011;17371;51.328;3.860;2023-05-10T14:41:48;6.83;;;3.67;;
30605;SDS011;17371;51.328;3.860;2023-05-10T14:44:14;13.97;;;5.00;;
30605;SDS011;17371;51.328;3.860;2023-05-10T14:46:39;7.90;;;4.53;;